sensor_id;sensor_type;location;lat;lon;timestamp;pressure;altitude;pressure_sealevel;temperature;humidity
2192;BME280;1102;49.718;11.902;2022-12-29T00:01:41;95937.66;;;1.13;100.00
2192;BME280;1102;49.718;11.902;2022-12-29T00:04:11;95935.94;;;1.03;100.00
2192;BME280;1102;49.718;11.902;2022-12-29T00:06:42;95933.28;;;1.08;100.00
2192;BME280;1102;49.718;11.902;2022-12-29T00:09:12;95935.66;;;1.34;100.00
2192;BME280;1102;49.718;11.902;2022-12-29T00:11:39;95938.28;;;1.53;100.00
2192;BME280;1102;49.718;11.902;2022-12-29T00:14:08;95928.88;;;1.57;100.00
2192;BME280;1102;49.718;11.902;2022-12-29T00:16:54;95912.81;;;1.50;100.00
2192;BME280;1102;49.718;11.902;2022-12-29T00:19:24;95864.78;;;1.37;100.00
2192;BME280;1102;49.718;11.902;2022-12-29T00:22:10;95937.72;;;1.80;100.00
2192;BME280;1102;49.718;11.902;2022-12-29T00:24:56;95937.13;;;1.88;100.00
2192;BME280;1102;49.718;11.902;2022-12-29T00:27:43;95909.41;;;1.92;100.00
2192;BME280;1102;49.718;11.902;2022-12-29T00:30:33;95913.81;;;1.72;100.00
2192;BME280;1102;49.718;11.902;2022-12-29T00:33:21;95917.47;;;1.71;100.00
2192;BME280;1102;49.718;11.902;2022-12-29T00:36:34;95935.22;;;1.69;100.00
2192;BME280;1102;49.718;11.902;2022-12-29T00:39:10;95922.31;;;1.59;100.00
2192;BME280;1102;49.718;11.902;2022-12-29T00:42:06;95923.81;;;1.65;100.00
2192;BME280;1102;49.718;11.902;2022-12-29T00:45:07;95900.94;;;1.62;100.00
2192;BME280;1102;49.718;11.902;2022-12-29T00:47:34;95914.59;;;1.73;100.00
2192;BME280;1102;49.718;11.902;2022-12-29T00:50:01;95913.78;;;1.77;100.00
2192;BME280;1102;49.718;11.902;2022-12-29T00:52:27;95912.44;;;1.80;100.00
2192;BME280;1102;49.718;11.902;2022-12-29T00:54:54;95901.06;;;1.52;100.00
2192;BME280;1102;49.718;11.902;2022-12-29T00:57:21;95913.19;;;1.62;100.00
2192;BME280;1102;49.718;11.902;2022-12-29T00:59:48;95896.69;;;1.47;100.00
2192;BME280;1102;49.718;11.902;2022-12-29T01:02:15;95913.22;;;1.57;100.00
2192;BME280;1102;49.718;11.902;2022-12-29T01:04:42;95897.97;;;1.50;100.00
2192;BME280;1102;49.718;11.902;2022-12-29T01:07:08;95915.06;;;1.56;100.00
2192;BME280;1102;49.718;11.902;2022-12-29T01:09:36;95895.41;;;1.45;100.00
2192;BME280;1102;49.718;11.902;2022-12-29T01:12:22;95888.03;;;1.28;100.00
2192;BME280;1102;49.718;11.902;2022-12-29T01:15:11;95913.91;;;1.43;100.00
2192;BME280;1102;49.718;11.902;2022-12-29T01:17:38;95877.19;;;1.21;100.00
2192;BME280;1102;49.718;11.902;2022-12-29T01:20:05;95903.16;;;1.50;100.00
2192;BME280;1102;49.718;11.902;2022-12-29T01:22:34;95874.19;;;1.33;100.00
2192;BME280;1102;49.718;11.902;2022-12-29T01:25:00;95894.88;;;1.48;100.00
2192;BME280;1102;49.718;11.902;2022-12-29T01:27:27;95866.78;;;1.21;100.00
2192;BME280;1102;49.718;11.902;2022-12-29T01:29:54;95896.44;;;1.44;100.00
2192;BME280;1102;49.718;11.902;2022-12-29T01:32:20;95880.72;;;1.30;100.00
2192;BME280;1102;49.718;11.902;2022-12-29T01:34:47;95900.09;;;1.67;100.00
2192;BME280;1102;49.718;11.902;2022-12-29T01:37:14;95871.56;;;1.57;100.00
2192;BME280;1102;49.718;11.902;2022-12-29T01:39:40;95855.50;;;1.68;100.00
2192;BME280;1102;49.718;11.902;2022-12-29T01:42:15;95872.22;;;1.86;100.00
2192;BME280;1102;49.718;11.902;2022-12-29T01:44:47;95890.53;;;2.00;100.00
2192;BME280;1102;49.718;11.902;2022-12-29T01:47:21;95901.88;;;1.90;100.00
2192;BME280;1102;49.718;11.902;2022-12-29T01:49:52;95872.78;;;1.64;100.00
2192;BME280;1102;49.718;11.902;2022-12-29T01:52:20;95878.28;;;1.39;100.00
2192;BME280;1102;49.718;11.902;2022-12-29T01:54:51;95893.19;;;1.33;100.00
2192;BME280;1102;49.718;11.902;2022-12-29T01:57:32;95881.50;;;1.31;100.00
2192;BME280;1102;49.718;11.902;2022-12-29T02:00:12;95867.78;;;1.25;100.00
2192;BME280;1102;49.718;11.902;2022-12-29T02:02:43;95845.53;;;1.33;100.00
2192;BME280;1102;49.718;11.902;2022-12-29T02:05:19;95835.41;;;1.31;100.00
2192;BME280;1102;49.718;11.902;2022-12-29T02:07:48;95860.38;;;1.56;100.00
2192;BME280;1102;49.718;11.902;2022-12-29T02:10:19;95829.31;;;1.41;100.00
2192;BME280;1102;49.718;11.902;2022-12-29T02:12:46;95826.69;;;1.41;100.00
2192;BME280;1102;49.718;11.902;2022-12-29T02:15:15;95843.03;;;1.46;100.00
2192;BME280;1102;49.718;11.902;2022-12-29T02:17:56;95848.75;;;1.48;100.00
2192;BME280;1102;49.718;11.902;2022-12-29T02:23:36;95833.13;;;1.48;100.00
2192;BME280;1102;49.718;11.902;2022-12-29T02:34:41;95833.63;;;1.69;100.00
2192;BME280;1102;49.718;11.902;2022-12-29T02:37:17;95835.03;;;1.81;100.00
2192;BME280;1102;49.718;11.902;2022-12-29T02:39:51;95838.34;;;1.86;100.00
2192;BME280;1102;49.718;11.902;2022-12-29T02:42:44;95837.50;;;1.91;100.00
2192;BME280;1102;49.718;11.902;2022-12-29T02:45:16;95833.25;;;1.95;100.00
2192;BME280;1102;49.718;11.902;2022-12-29T02:47:57;95806.03;;;1.87;100.00
2192;BME280;1102;49.718;11.902;2022-12-29T02:50:38;95836.06;;;1.98;100.00
2192;BME280;1102;49.718;11.902;2022-12-29T02:53:09;95839.69;;;2.02;100.00
2192;BME280;1102;49.718;11.902;2022-12-29T02:55:37;95831.03;;;1.88;100.00
2192;BME280;1102;49.718;11.902;2022-12-29T03:06:33;95834.97;;;3.38;100.00
2192;BME280;1102;49.718;11.902;2022-12-29T03:12:03;95824.09;;;3.59;100.00
2192;BME280;1102;49.718;11.902;2022-12-29T03:18:04;95835.69;;;3.80;100.00
2192;BME280;1102;49.718;11.902;2022-12-29T03:20:43;95834.44;;;3.77;100.00
2192;BME280;1102;49.718;11.902;2022-12-29T03:23:14;95829.84;;;3.83;100.00
2192;BME280;1102;49.718;11.902;2022-12-29T03:25:48;95822.97;;;3.87;100.00
2192;BME280;1102;49.718;11.902;2022-12-29T03:28:27;95839.50;;;3.96;100.00
2192;BME280;1102;49.718;11.902;2022-12-29T03:30:57;95817.69;;;3.78;100.00
2192;BME280;1102;49.718;11.902;2022-12-29T03:33:28;95825.00;;;3.90;100.00
2192;BME280;1102;49.718;11.902;2022-12-29T03:36:03;95838.44;;;3.97;100.00
2192;BME280;1102;49.718;11.902;2022-12-29T03:38:39;95844.69;;;4.10;100.00
2192;BME280;1102;49.718;11.902;2022-12-29T03:41:10;95840.34;;;4.05;100.00
2192;BME280;1102;49.718;11.902;2022-12-29T03:43:39;95829.81;;;3.97;100.00
2192;BME280;1102;49.718;11.902;2022-12-29T03:46:06;95847.25;;;4.01;100.00
2192;BME280;1102;49.718;11.902;2022-12-29T03:48:33;95784.38;;;3.70;100.00
2192;BME280;1102;49.718;11.902;2022-12-29T03:51:00;95833.81;;;3.94;100.00
2192;BME280;1102;49.718;11.902;2022-12-29T03:53:27;95836.78;;;4.01;100.00
2192;BME280;1102;49.718;11.902;2022-12-29T03:55:53;95831.25;;;4.03;100.00
2192;BME280;1102;49.718;11.902;2022-12-29T03:58:21;95839.22;;;3.98;100.00
2192;BME280;1102;49.718;11.902;2022-12-29T04:00:56;95838.22;;;4.07;100.00
2192;BME280;1102;49.718;11.902;2022-12-29T04:03:23;95816.56;;;3.93;100.00
2192;BME280;1102;49.718;11.902;2022-12-29T04:05:52;95834.34;;;4.05;100.00
2192;BME280;1102;49.718;11.902;2022-12-29T04:08:22;95840.44;;;4.00;100.00
2192;BME280;1102;49.718;11.902;2022-12-29T04:10:49;95844.53;;;4.06;100.00
2192;BME280;1102;49.718;11.902;2022-12-29T04:13:18;95818.88;;;3.95;100.00
2192;BME280;1102;49.718;11.902;2022-12-29T04:15:45;95820.81;;;4.03;100.00
2192;BME280;1102;49.718;11.902;2022-12-29T04:18:12;95815.44;;;4.08;100.00
2192;BME280;1102;49.718;11.902;2022-12-29T04:20:40;95802.72;;;3.93;100.00
2192;BME280;1102;49.718;11.902;2022-12-29T04:23:26;95802.25;;;3.91;100.00
2192;BME280;1102;49.718;11.902;2022-12-29T04:25:52;95826.38;;;4.10;100.00
2192;BME280;1102;49.718;11.902;2022-12-29T04:28:19;95805.97;;;3.98;100.00
2192;BME280;1102;49.718;11.902;2022-12-29T04:30:55;95819.00;;;4.12;100.00
2192;BME280;1102;49.718;11.902;2022-12-29T04:33:25;95834.78;;;4.21;100.00
2192;BME280;1102;49.718;11.902;2022-12-29T04:35:52;95825.25;;;4.02;100.00
2192;BME280;1102;49.718;11.902;2022-12-29T04:38:22;95794.94;;;4.01;100.00
2192;BME280;1102;49.718;11.902;2022-12-29T04:40:52;95839.41;;;4.24;100.00
2192;BME280;1102;49.718;11.902;2022-12-29T04:43:22;95790.38;;;4.07;100.00
2192;BME280;1102;49.718;11.902;2022-12-29T04:46:11;95807.38;;;4.18;100.00
2192;BME280;1102;49.718;11.902;2022-12-29T04:48:55;95813.22;;;4.15;100.00
2192;BME280;1102;49.718;11.902;2022-12-29T04:51:40;95806.22;;;4.10;100.00
2192;BME280;1102;49.718;11.902;2022-12-29T04:54:09;95813.16;;;4.29;100.00
2192;BME280;1102;49.718;11.902;2022-12-29T04:56:36;95818.94;;;4.26;100.00
2192;BME280;1102;49.718;11.902;2022-12-29T04:59:03;95788.69;;;4.11;100.00
2192;BME280;1102;49.718;11.902;2022-12-29T05:01:30;95825.19;;;4.38;100.00
2192;BME280;1102;49.718;11.902;2022-12-29T05:03:57;95830.72;;;4.37;100.00
2192;BME280;1102;49.718;11.902;2022-12-29T05:06:24;95799.16;;;4.11;100.00
2192;BME280;1102;49.718;11.902;2022-12-29T05:08:50;95802.53;;;4.11;100.00
2192;BME280;1102;49.718;11.902;2022-12-29T05:11:17;95810.63;;;4.24;100.00
2192;BME280;1102;49.718;11.902;2022-12-29T05:13:46;95829.06;;;4.41;100.00
2192;BME280;1102;49.718;11.902;2022-12-29T05:16:15;95822.94;;;4.45;100.00
2192;BME280;1102;49.718;11.902;2022-12-29T05:18:43;95815.78;;;4.37;100.00
2192;BME280;1102;49.718;11.902;2022-12-29T05:21:10;95826.63;;;4.44;100.00
2192;BME280;1102;49.718;11.902;2022-12-29T05:23:39;95795.28;;;4.31;100.00
2192;BME280;1102;49.718;11.902;2022-12-29T05:26:05;95745.25;;;4.01;100.00
2192;BME280;1102;49.718;11.902;2022-12-29T05:28:53;95808.44;;;4.17;100.00
2192;BME280;1102;49.718;11.902;2022-12-29T05:31:21;95819.13;;;4.07;100.00
2192;BME280;1102;49.718;11.902;2022-12-29T05:33:48;95815.63;;;4.11;100.00
2192;BME280;1102;49.718;11.902;2022-12-29T05:36:14;95788.09;;;3.92;100.00
2192;BME280;1102;49.718;11.902;2022-12-29T05:38:46;95809.09;;;4.23;100.00
2192;BME280;1102;49.718;11.902;2022-12-29T05:41:13;95806.63;;;4.26;100.00
2192;BME280;1102;49.718;11.902;2022-12-29T05:43:58;95810.75;;;4.41;100.00
2192;BME280;1102;49.718;11.902;2022-12-29T05:46:51;95798.91;;;4.21;100.00
2192;BME280;1102;49.718;11.902;2022-12-29T05:49:29;95797.44;;;4.29;100.00
2192;BME280;1102;49.718;11.902;2022-12-29T05:52:25;95837.34;;;4.57;100.00
2192;BME280;1102;49.718;11.902;2022-12-29T05:54:52;95839.94;;;4.57;100.00
2192;BME280;1102;49.718;11.902;2022-12-29T05:57:21;95826.94;;;4.43;100.00
2192;BME280;1102;49.718;11.902;2022-12-29T05:59:56;95802.41;;;4.39;100.00
2192;BME280;1102;49.718;11.902;2022-12-29T06:02:23;95801.59;;;4.30;100.00
2192;BME280;1102;49.718;11.902;2022-12-29T06:04:50;95821.25;;;4.27;100.00
2192;BME280;1102;49.718;11.902;2022-12-29T06:07:17;95826.56;;;4.36;100.00
2192;BME280;1102;49.718;11.902;2022-12-29T06:09:45;95795.09;;;4.27;100.00
2192;BME280;1102;49.718;11.902;2022-12-29T06:12:12;95812.56;;;4.40;100.00
2192;BME280;1102;49.718;11.902;2022-12-29T06:14:42;95776.16;;;4.22;100.00
2192;BME280;1102;49.718;11.902;2022-12-29T06:17:08;95785.91;;;4.07;100.00
2192;BME280;1102;49.718;11.902;2022-12-29T06:19:36;95792.31;;;4.24;100.00
2192;BME280;1102;49.718;11.902;2022-12-29T06:22:03;95818.47;;;4.24;100.00
2192;BME280;1102;49.718;11.902;2022-12-29T06:24:32;95794.34;;;4.04;100.00
2192;BME280;1102;49.718;11.902;2022-12-29T06:26:59;95806.69;;;4.12;100.00
2192;BME280;1102;49.718;11.902;2022-12-29T06:29:26;95793.44;;;3.86;100.00
2192;BME280;1102;49.718;11.902;2022-12-29T06:31:54;95797.56;;;4.01;100.00
2192;BME280;1102;49.718;11.902;2022-12-29T06:34:24;95822.78;;;4.20;100.00
2192;BME280;1102;49.718;11.902;2022-12-29T06:39:18;95783.69;;;3.78;100.00
2192;BME280;1102;49.718;11.902;2022-12-29T06:41:57;95829.16;;;4.13;100.00
2192;BME280;1102;49.718;11.902;2022-12-29T06:44:45;95806.84;;;4.07;100.00
2192;BME280;1102;49.718;11.902;2022-12-29T06:47:12;95815.38;;;3.99;100.00
2192;BME280;1102;49.718;11.902;2022-12-29T06:49:38;95811.03;;;3.95;100.00
2192;BME280;1102;49.718;11.902;2022-12-29T06:52:05;95793.16;;;3.88;100.00
2192;BME280;1102;49.718;11.902;2022-12-29T06:54:38;95798.66;;;3.86;100.00
2192;BME280;1102;49.718;11.902;2022-12-29T06:57:05;95792.78;;;3.81;100.00
2192;BME280;1102;49.718;11.902;2022-12-29T06:59:31;95823.22;;;3.99;100.00
2192;BME280;1102;49.718;11.902;2022-12-29T07:01:58;95794.75;;;3.75;100.00
2192;BME280;1102;49.718;11.902;2022-12-29T07:04:25;95804.50;;;3.83;100.00
2192;BME280;1102;49.718;11.902;2022-12-29T07:06:51;95821.88;;;4.02;100.00
2192;BME280;1102;49.718;11.902;2022-12-29T07:09:18;95767.38;;;3.59;100.00
2192;BME280;1102;49.718;11.902;2022-12-29T07:11:45;95831.78;;;3.91;100.00
2192;BME280;1102;49.718;11.902;2022-12-29T07:14:12;95786.81;;;3.67;100.00
2192;BME280;1102;49.718;11.902;2022-12-29T07:16:38;95818.59;;;3.96;100.00
2192;BME280;1102;49.718;11.902;2022-12-29T07:19:05;95826.59;;;4.00;100.00
2192;BME280;1102;49.718;11.902;2022-12-29T07:21:32;95792.00;;;3.80;100.00
2192;BME280;1102;49.718;11.902;2022-12-29T07:23:59;95800.25;;;3.74;100.00
2192;BME280;1102;49.718;11.902;2022-12-29T07:26:25;95827.03;;;3.93;100.00
2192;BME280;1102;49.718;11.902;2022-12-29T07:29:00;95810.06;;;3.68;100.00
2192;BME280;1102;49.718;11.902;2022-12-29T07:31:27;95802.25;;;3.54;100.00
2192;BME280;1102;49.718;11.902;2022-12-29T07:33:54;95799.50;;;3.60;100.00
2192;BME280;1102;49.718;11.902;2022-12-29T07:36:20;95803.09;;;3.64;100.00
2192;BME280;1102;49.718;11.902;2022-12-29T07:38:47;95809.88;;;3.65;100.00
2192;BME280;1102;49.718;11.902;2022-12-29T07:41:14;95837.91;;;3.73;100.00
2192;BME280;1102;49.718;11.902;2022-12-29T07:43:40;95805.06;;;3.44;100.00
2192;BME280;1102;49.718;11.902;2022-12-29T07:46:27;95819.59;;;3.50;100.00
2192;BME280;1102;49.718;11.902;2022-12-29T07:49:14;95829.25;;;3.50;100.00
2192;BME280;1102;49.718;11.902;2022-12-29T07:51:40;95842.41;;;3.45;100.00
2192;BME280;1102;49.718;11.902;2022-12-29T07:54:08;95839.91;;;3.40;100.00
2192;BME280;1102;49.718;11.902;2022-12-29T07:56:35;95874.34;;;3.55;100.00
2192;BME280;1102;49.718;11.902;2022-12-29T07:59:02;95863.63;;;3.43;100.00
2192;BME280;1102;49.718;11.902;2022-12-29T08:01:28;95862.75;;;3.34;100.00
2192;BME280;1102;49.718;11.902;2022-12-29T08:03:55;95865.38;;;3.34;100.00
2192;BME280;1102;49.718;11.902;2022-12-29T08:06:23;95851.03;;;3.32;100.00
2192;BME280;1102;49.718;11.902;2022-12-29T08:08:52;95859.28;;;3.39;100.00
2192;BME280;1102;49.718;11.902;2022-12-29T08:11:19;95855.00;;;3.43;100.00
2192;BME280;1102;49.718;11.902;2022-12-29T08:13:46;95881.50;;;3.64;100.00
2192;BME280;1102;49.718;11.902;2022-12-29T08:16:13;95878.59;;;3.65;100.00
2192;BME280;1102;49.718;11.902;2022-12-29T08:18:39;95850.66;;;3.52;100.00
2192;BME280;1102;49.718;11.902;2022-12-29T08:21:06;95842.03;;;3.51;100.00
2192;BME280;1102;49.718;11.902;2022-12-29T08:23:33;95855.47;;;3.59;100.00
2192;BME280;1102;49.718;11.902;2022-12-29T08:26:01;95869.09;;;3.69;100.00
2192;BME280;1102;49.718;11.902;2022-12-29T08:28:29;95886.91;;;3.81;100.00
2192;BME280;1102;49.718;11.902;2022-12-29T08:31:00;95878.16;;;3.85;100.00
2192;BME280;1102;49.718;11.902;2022-12-29T08:33:28;95864.31;;;3.85;100.00
2192;BME280;1102;49.718;11.902;2022-12-29T08:36:00;95864.72;;;3.92;100.00
2192;BME280;1102;49.718;11.902;2022-12-29T08:38:27;95870.72;;;3.93;100.00
2192;BME280;1102;49.718;11.902;2022-12-29T08:40:55;95867.50;;;3.96;100.00
2192;BME280;1102;49.718;11.902;2022-12-29T08:43:23;95854.59;;;3.99;100.00
2192;BME280;1102;49.718;11.902;2022-12-29T08:45:49;95837.75;;;4.05;100.00
2192;BME280;1102;49.718;11.902;2022-12-29T08:48:16;95848.56;;;4.12;100.00
2192;BME280;1102;49.718;11.902;2022-12-29T08:50:46;95856.09;;;4.28;100.00
2192;BME280;1102;49.718;11.902;2022-12-29T08:53:13;95856.94;;;4.23;100.00
2192;BME280;1102;49.718;11.902;2022-12-29T08:55:40;95842.75;;;4.15;100.00
2192;BME280;1102;49.718;11.902;2022-12-29T08:58:06;95858.69;;;4.28;100.00
2192;BME280;1102;49.718;11.902;2022-12-29T09:00:36;95843.34;;;4.35;100.00
2192;BME280;1102;49.718;11.902;2022-12-29T09:03:03;95848.09;;;4.33;100.00
2192;BME280;1102;49.718;11.902;2022-12-29T09:05:30;95872.84;;;4.49;100.00
2192;BME280;1102;49.718;11.902;2022-12-29T09:07:57;95855.25;;;4.41;100.00
2192;BME280;1102;49.718;11.902;2022-12-29T09:10:23;95833.47;;;4.32;100.00
2192;BME280;1102;49.718;11.902;2022-12-29T09:12:50;95854.81;;;4.48;100.00
2192;BME280;1102;49.718;11.902;2022-12-29T09:15:17;95849.09;;;4.45;100.00
2192;BME280;1102;49.718;11.902;2022-12-29T09:17:43;95867.84;;;4.61;100.00
2192;BME280;1102;49.718;11.902;2022-12-29T09:20:12;95855.81;;;4.60;100.00
2192;BME280;1102;49.718;11.902;2022-12-29T09:22:40;95845.56;;;4.72;100.00
2192;BME280;1102;49.718;11.902;2022-12-29T09:25:07;95878.72;;;5.08;100.00
2192;BME280;1102;49.718;11.902;2022-12-29T09:27:36;95863.28;;;5.07;100.00
2192;BME280;1102;49.718;11.902;2022-12-29T09:30:04;95880.00;;;5.19;100.00
2192;BME280;1102;49.718;11.902;2022-12-29T09:32:33;95868.47;;;5.29;100.00
2192;BME280;1102;49.718;11.902;2022-12-29T09:35:07;95877.16;;;5.47;100.00
2192;BME280;1102;49.718;11.902;2022-12-29T09:37:34;95877.50;;;5.54;100.00
2192;BME280;1102;49.718;11.902;2022-12-29T09:40:01;95848.94;;;5.44;100.00
2192;BME280;1102;49.718;11.902;2022-12-29T09:42:58;95862.53;;;5.54;100.00
2192;BME280;1102;49.718;11.902;2022-12-29T09:45:43;95790.44;;;5.17;100.00
2192;BME280;1102;49.718;11.902;2022-12-29T09:48:21;95833.88;;;5.67;100.00
2192;BME280;1102;49.718;11.902;2022-12-29T09:50:53;95864.78;;;5.96;100.00
2192;BME280;1102;49.718;11.902;2022-12-29T09:53:27;95851.38;;;6.06;100.00
2192;BME280;1102;49.718;11.902;2022-12-29T09:55:58;95826.66;;;5.98;100.00
2192;BME280;1102;49.718;11.902;2022-12-29T09:58:34;95839.81;;;6.15;100.00
2192;BME280;1102;49.718;11.902;2022-12-29T10:03:53;95851.81;;;6.51;100.00
2192;BME280;1102;49.718;11.902;2022-12-29T10:20:30;95806.69;;;7.34;100.00
2192;BME280;1102;49.718;11.902;2022-12-29T10:23:25;95828.38;;;7.60;100.00
2192;BME280;1102;49.718;11.902;2022-12-29T10:25:55;95824.16;;;7.68;100.00
2192;BME280;1102;49.718;11.902;2022-12-29T10:28:49;95802.53;;;7.62;100.00
2192;BME280;1102;49.718;11.902;2022-12-29T10:31:21;95784.03;;;7.50;100.00
2192;BME280;1102;49.718;11.902;2022-12-29T10:33:57;95812.53;;;7.69;100.00
2192;BME280;1102;49.718;11.902;2022-12-29T10:36:39;95795.09;;;7.64;100.00
2192;BME280;1102;49.718;11.902;2022-12-29T10:42:34;95804.28;;;7.79;100.00
2192;BME280;1102;49.718;11.902;2022-12-29T10:45:04;95796.09;;;7.72;100.00
2192;BME280;1102;49.718;11.902;2022-12-29T10:47:40;95810.09;;;7.85;100.00
2192;BME280;1102;49.718;11.902;2022-12-29T10:50:12;95782.38;;;7.66;100.00
2192;BME280;1102;49.718;11.902;2022-12-29T10:52:39;95796.50;;;7.83;100.00
2192;BME280;1102;49.718;11.902;2022-12-29T10:55:16;95799.53;;;7.93;100.00
2192;BME280;1102;49.718;11.902;2022-12-29T10:57:45;95771.22;;;7.69;100.00
2192;BME280;1102;49.718;11.902;2022-12-29T11:00:17;95806.31;;;7.94;100.00
2192;BME280;1102;49.718;11.902;2022-12-29T11:03:07;95774.22;;;7.80;100.00
2192;BME280;1102;49.718;11.902;2022-12-29T11:08:43;95804.13;;;8.17;100.00
2192;BME280;1102;49.718;11.902;2022-12-29T11:11:12;95769.97;;;8.09;100.00
2192;BME280;1102;49.718;11.902;2022-12-29T11:13:50;95787.72;;;8.33;100.00
2192;BME280;1102;49.718;11.902;2022-12-29T11:16:29;95788.63;;;8.37;100.00
2192;BME280;1102;49.718;11.902;2022-12-29T11:19:01;95770.66;;;8.39;100.00
2192;BME280;1102;49.718;11.902;2022-12-29T11:21:31;95771.47;;;8.30;100.00
2192;BME280;1102;49.718;11.902;2022-12-29T11:24:04;95785.59;;;8.47;100.00
2192;BME280;1102;49.718;11.902;2022-12-29T11:26:32;95775.84;;;8.47;100.00
2192;BME280;1102;49.718;11.902;2022-12-29T11:31:41;95772.91;;;8.61;100.00
2192;BME280;1102;49.718;11.902;2022-12-29T11:34:08;95784.91;;;8.83;100.00
2192;BME280;1102;49.718;11.902;2022-12-29T11:36:42;95741.28;;;8.61;100.00
2192;BME280;1102;49.718;11.902;2022-12-29T11:39:28;95785.91;;;9.03;100.00
2192;BME280;1102;49.718;11.902;2022-12-29T11:41:56;95759.88;;;8.89;100.00
2192;BME280;1102;49.718;11.902;2022-12-29T11:44:24;95759.78;;;8.98;100.00
2192;BME280;1102;49.718;11.902;2022-12-29T11:46:53;95773.06;;;9.13;100.00
2192;BME280;1102;49.718;11.902;2022-12-29T11:49:23;95790.19;;;9.19;100.00
2192;BME280;1102;49.718;11.902;2022-12-29T11:51:53;95750.53;;;8.92;100.00
2192;BME280;1102;49.718;11.902;2022-12-29T11:54:27;95767.88;;;9.17;100.00
2192;BME280;1102;49.718;11.902;2022-12-29T11:56:57;95744.50;;;9.03;100.00
2192;BME280;1102;49.718;11.902;2022-12-29T12:01:57;95782.94;;;9.16;100.00
2192;BME280;1102;49.718;11.902;2022-12-29T12:04:28;95772.97;;;9.10;100.00
2192;BME280;1102;49.718;11.902;2022-12-29T12:07:05;95782.41;;;9.11;100.00
2192;BME280;1102;49.718;11.902;2022-12-29T12:09:45;95775.94;;;9.08;100.00
2192;BME280;1102;49.718;11.902;2022-12-29T12:12:53;95767.78;;;9.01;100.00
2192;BME280;1102;49.718;11.902;2022-12-29T12:15:36;95745.03;;;8.84;100.00
2192;BME280;1102;49.718;11.902;2022-12-29T12:20:52;95772.72;;;9.03;100.00
2192;BME280;1102;49.718;11.902;2022-12-29T12:26:42;95748.22;;;8.90;100.00
2192;BME280;1102;49.718;11.902;2022-12-29T12:32:15;95776.34;;;8.98;100.00
2192;BME280;1102;49.718;11.902;2022-12-29T12:34:47;95758.66;;;8.99;100.00
2192;BME280;1102;49.718;11.902;2022-12-29T12:37:31;95780.63;;;9.15;100.00
2192;BME280;1102;49.718;11.902;2022-12-29T12:42:45;95784.47;;;9.17;100.00
2192;BME280;1102;49.718;11.902;2022-12-29T12:45:42;95781.06;;;9.17;100.00
2192;BME280;1102;49.718;11.902;2022-12-29T13:00:00;95778.66;;;9.48;100.00
2192;BME280;1102;49.718;11.902;2022-12-29T13:02:43;95776.22;;;9.56;100.00
2192;BME280;1102;49.718;11.902;2022-12-29T13:06:03;95782.69;;;9.58;100.00
2192;BME280;1102;49.718;11.902;2022-12-29T13:08:58;95781.50;;;9.56;100.00
2192;BME280;1102;49.718;11.902;2022-12-29T13:11:45;95773.78;;;9.63;100.00
2192;BME280;1102;49.718;11.902;2022-12-29T13:17:30;95756.28;;;9.58;100.00
2192;BME280;1102;49.718;11.902;2022-12-29T13:25:33;95782.22;;;9.68;100.00
2192;BME280;1102;49.718;11.902;2022-12-29T13:28:09;95776.28;;;9.71;100.00
2192;BME280;1102;49.718;11.902;2022-12-29T13:30:53;95773.66;;;9.71;100.00
2192;BME280;1102;49.718;11.902;2022-12-29T13:33:33;95773.66;;;9.71;100.00
2192;BME280;1102;49.718;11.902;2022-12-29T13:36:11;95780.25;;;9.65;100.00
2192;BME280;1102;49.718;11.902;2022-12-29T13:38:44;95781.56;;;9.71;100.00
2192;BME280;1102;49.718;11.902;2022-12-29T13:41:27;95760.72;;;9.54;100.00
2192;BME280;1102;49.718;11.902;2022-12-29T13:43:57;95748.84;;;9.48;100.00
2192;BME280;1102;49.718;11.902;2022-12-29T13:46:28;95753.59;;;9.42;100.00
2192;BME280;1102;49.718;11.902;2022-12-29T13:51:29;95786.09;;;9.59;100.00
2192;BME280;1102;49.718;11.902;2022-12-29T13:54:18;95792.13;;;9.59;100.00
2192;BME280;1102;49.718;11.902;2022-12-29T13:59:51;95793.47;;;9.53;100.00
2192;BME280;1102;49.718;11.902;2022-12-29T14:02:46;95790.41;;;9.51;100.00
2192;BME280;1102;49.718;11.902;2022-12-29T14:08:03;95773.50;;;9.28;100.00
2192;BME280;1102;49.718;11.902;2022-12-29T14:10:35;95800.53;;;9.49;100.00
2192;BME280;1102;49.718;11.902;2022-12-29T14:13:17;95732.63;;;9.09;100.00
2192;BME280;1102;49.718;11.902;2022-12-29T14:15:52;95777.44;;;9.34;100.00
2192;BME280;1102;49.718;11.902;2022-12-29T14:18:25;95783.81;;;9.45;100.00
2192;BME280;1102;49.718;11.902;2022-12-29T14:23:39;95787.78;;;9.39;100.00
2192;BME280;1102;49.718;11.902;2022-12-29T14:28:38;95795.59;;;9.23;100.00
2192;BME280;1102;49.718;11.902;2022-12-29T14:34:15;95809.41;;;9.32;100.00
2192;BME280;1102;49.718;11.902;2022-12-29T14:36:59;95815.69;;;9.28;100.00
2192;BME280;1102;49.718;11.902;2022-12-29T14:39:42;95815.69;;;9.28;100.00
2192;BME280;1102;49.718;11.902;2022-12-29T14:44:50;95817.03;;;9.22;100.00
2192;BME280;1102;49.718;11.902;2022-12-29T14:47:21;95824.47;;;9.19;100.00
2192;BME280;1102;49.718;11.902;2022-12-29T14:49:49;95797.78;;;8.97;100.00
2192;BME280;1102;49.718;11.902;2022-12-29T14:52:21;95816.78;;;9.14;100.00
2192;BME280;1102;49.718;11.902;2022-12-29T14:57:50;95800.19;;;8.89;100.00
2192;BME280;1102;49.718;11.902;2022-12-29T15:00:37;95811.84;;;9.01;100.00
2192;BME280;1102;49.718;11.902;2022-12-29T15:03:14;95812.50;;;8.98;100.00
2192;BME280;1102;49.718;11.902;2022-12-29T15:05:52;95775.22;;;8.75;100.00
2192;BME280;1102;49.718;11.902;2022-12-29T15:08:22;95816.56;;;8.95;100.00
2192;BME280;1102;49.718;11.902;2022-12-29T15:11:20;95823.47;;;9.00;100.00
2192;BME280;1102;49.718;11.902;2022-12-29T15:13:48;95801.25;;;8.76;100.00
2192;BME280;1102;49.718;11.902;2022-12-29T15:16:31;95824.34;;;8.92;100.00
2192;BME280;1102;49.718;11.902;2022-12-29T15:18:59;95796.94;;;8.59;100.00
2192;BME280;1102;49.718;11.902;2022-12-29T15:21:32;95835.66;;;8.92;100.00
2192;BME280;1102;49.718;11.902;2022-12-29T15:23:59;95826.88;;;8.88;100.00
2192;BME280;1102;49.718;11.902;2022-12-29T15:26:41;95834.78;;;8.88;100.00
2192;BME280;1102;49.718;11.902;2022-12-29T15:31:58;95827.84;;;8.83;100.00
2192;BME280;1102;49.718;11.902;2022-12-29T15:34:29;95775.50;;;8.49;100.00